createdAt,value
2022-10-28T05:57:28.784Z,95903.47
2022-10-28T05:59:56.942Z,95905.13
2022-10-28T06:02:24.117Z,95890.72
2022-10-28T06:04:51.250Z,95884.34
2022-10-28T06:07:18.314Z,95890.25
2022-10-28T06:09:47.476Z,95893.84
2022-10-28T06:12:13.983Z,95881.59
2022-10-28T06:14:41.281Z,95880.75
2022-10-28T06:17:08.580Z,95889.50
2022-10-28T06:19:35.660Z,95888.72
2022-10-28T06:22:03.033Z,95898.81
2022-10-28T06:24:30.304Z,95901.56
2022-10-28T06:26:57.530Z,95886.81
2022-10-28T06:29:25.441Z,95896.63
2022-10-28T06:31:54.169Z,95891.88
2022-10-28T06:34:21.458Z,95901.44
2022-10-28T06:36:48.479Z,95900.81
2022-10-28T06:39:16.195Z,95882.47
2022-10-28T06:41:44.937Z,95900.06
2022-10-28T06:44:12.162Z,95897.31
2022-10-28T06:46:40.845Z,95899.34
2022-10-28T06:49:09.265Z,95895.97
2022-10-28T06:51:36.631Z,95912.19
2022-10-28T06:54:03.805Z,95902.53
2022-10-28T06:56:31.260Z,95906.13
2022-10-28T06:58:58.598Z,95912.63
2022-10-28T07:01:26.256Z,95923.25
2022-10-28T07:03:53.702Z,95923.56
2022-10-28T07:06:21.953Z,95915.78
2022-10-28T07:08:49.047Z,95928.50
2022-10-28T07:11:16.304Z,95906.97
2022-10-28T07:13:45.424Z,95920.00
2022-10-28T07:16:15.668Z,95913.84
2022-10-28T07:18:42.923Z,95926.00
2022-10-28T07:21:10.311Z,95916.59
2022-10-28T07:23:37.847Z,95915.31
2022-10-28T07:26:05.240Z,95924.22
2022-10-28T07:28:32.548Z,95923.97
2022-10-28T07:31:03.984Z,95920.25
2022-10-28T07:33:31.417Z,95927.19
2022-10-28T07:35:58.317Z,95915.38
2022-10-28T07:38:26.466Z,95916.75
2022-10-28T07:40:53.590Z,95920.00
2022-10-28T07:43:20.686Z,95920.63
2022-10-28T07:45:48.703Z,95910.34
2022-10-28T07:48:17.786Z,95920.94
2022-10-28T07:50:47.828Z,95927.34
2022-10-28T07:55:58.488Z,95924.19
2022-10-28T07:58:25.901Z,95925.72
2022-10-28T08:00:53.562Z,95914.78
2022-10-28T08:03:21.598Z,95921.81
2022-10-28T08:05:48.709Z,95911.88
2022-10-28T08:08:15.760Z,95922.13
2022-10-28T08:10:42.785Z,95914.88
2022-10-28T08:13:10.938Z,95921.09
2022-10-28T08:15:38.134Z,95919.97
2022-10-28T08:18:05.392Z,95921.66
2022-10-28T08:20:32.930Z,95911.22
2022-10-28T08:23:02.747Z,95907.16
2022-10-28T08:25:33.230Z,95922.78
2022-10-28T08:28:01.260Z,95919.03
2022-10-28T08:30:28.997Z,95922.56
2022-10-28T08:32:58.047Z,95922.56
2022-10-28T08:35:25.844Z,95916.06
2022-10-28T08:37:54.544Z,95925.81
2022-10-28T08:40:31.680Z,95922.91
2022-10-28T08:43:20.727Z,95922.06
2022-10-28T08:46:03.291Z,95914.25
2022-10-28T08:48:36.857Z,95929.84
2022-10-28T08:51:49.278Z,95920.44
2022-10-28T08:54:39.918Z,95923.69
2022-10-28T08:57:18.165Z,95930.94
2022-10-28T08:59:46.855Z,95933.88
2022-10-28T09:02:26.692Z,95941.13
2022-10-28T09:05:18.349Z,95940.56
2022-10-28T09:07:45.527Z,95939.81
2022-10-28T09:10:16.982Z,95941.44
2022-10-28T09:13:29.383Z,95922.91
2022-10-28T09:16:27.786Z,95942.50
2022-10-28T09:18:58.237Z,95944.13
2022-10-28T09:22:20.775Z,95940.88
2022-10-28T09:25:05.916Z,95934.47
2022-10-28T09:28:13.495Z,95949.72
2022-10-28T09:30:57.250Z,95943.53
2022-10-28T09:33:50.899Z,95946.00
2022-10-28T09:36:29.570Z,95951.09
2022-10-28T09:39:53.196Z,95952.94
2022-10-28T09:42:30.393Z,95960.19
2022-10-28T09:45:04.769Z,95950.78
2022-10-28T09:47:49.099Z,95955.94
2022-10-28T09:50:21.281Z,95954.34
2022-10-28T09:53:14.468Z,95962.69
2022-10-28T09:55:41.618Z,95948.66
2022-10-28T09:58:12.659Z,95969.97
2022-10-28T10:00:41.665Z,95963.56
2022-10-28T10:03:09.063Z,95948.53
2022-10-28T10:05:50.397Z,95954.00
2022-10-28T10:08:20.686Z,95951.31
2022-10-28T10:11:02.304Z,95953.47
2022-10-28T10:13:35.813Z,95960.47
2022-10-28T10:16:21.812Z,95942.44
2022-10-28T10:18:53.637Z,95954.84
2022-10-28T10:21:51.854Z,95954.03
2022-10-28T10:24:31.121Z,95943.59
2022-10-28T10:27:23.112Z,95948.69
2022-10-28T10:29:53.272Z,95948.69
2022-10-28T10:32:33.257Z,95931.25
2022-10-28T10:35:25.714Z,95933.41
2022-10-28T10:37:57.132Z,95938.53
2022-10-28T10:40:33.819Z,95925.34
2022-10-28T10:43:33.327Z,95944.97
2022-10-28T10:46:06.244Z,95939.34
2022-10-28T10:48:36.420Z,95935.84
2022-10-28T10:51:25.227Z,95949.50
2022-10-28T10:54:00.794Z,95935.63
2022-10-28T10:56:33.491Z,95940.16
2022-10-28T10:59:04.454Z,95936.66
2022-10-28T11:01:39.183Z,95928.06
2022-10-28T11:04:08.937Z,95937.25
2022-10-28T11:06:42.405Z,95930.81
2022-10-28T11:09:36.780Z,95920.88
2022-10-28T11:12:26.380Z,95922.22
2022-10-28T11:15:00.134Z,95921.66
2022-10-28T11:20:29.900Z,95926.53
2022-10-28T11:23:44.252Z,95917.66
2022-10-28T11:26:15.616Z,95906.91
2022-10-28T11:29:04.099Z,95914.19
2022-10-28T11:31:49.358Z,95919.56
2022-10-28T11:34:51.374Z,95909.31
2022-10-28T11:37:36.620Z,95906.16
2022-10-28T11:40:34.162Z,95910.69
2022-10-28T11:43:23.161Z,95907.22
2022-10-28T11:46:22.226Z,95902.91
2022-10-28T11:49:34.989Z,95910.16
2022-10-28T11:52:28.517Z,95902.91
2022-10-28T11:55:02.955Z,95901.28
2022-10-28T11:58:21.128Z,95906.09
2022-10-28T12:01:06.237Z,95903.72
2022-10-28T12:04:09.845Z,95889.22
2022-10-28T12:07:06.908Z,95879.75
2022-10-28T12:09:57.817Z,95885.78
2022-10-28T12:13:06.142Z,95879.06
2022-10-28T12:16:19.201Z,95882.56
2022-10-28T12:19:27.982Z,95883.38
2022-10-28T12:22:19.434Z,95870.72
2022-10-28T12:24:47.567Z,95870.22
2022-10-28T12:27:27.258Z,95878.34
2022-10-28T12:30:27.282Z,95874.34
2022-10-28T12:33:05.472Z,95875.13
2022-10-28T12:35:38.581Z,95874.88
2022-10-28T12:38:18.432Z,95865.75
2022-10-28T12:40:56.095Z,95875.44
2022-10-28T12:43:49.890Z,95868.47
2022-10-28T12:47:18.692Z,95873.03
2022-10-28T12:49:57.549Z,95854.59
2022-10-28T12:52:30.898Z,95870.66
2022-10-28T12:55:08.226Z,95866.66
2022-10-28T12:57:37.870Z,95842.75
2022-10-28T13:00:17.121Z,95851.91
2022-10-28T13:02:57.488Z,95860.00
2022-10-28T13:05:38.105Z,95854.91
2022-10-28T13:08:23.284Z,95862.41
2022-10-28T13:11:21.147Z,95864.28
2022-10-28T13:14:18.641Z,95858.69
2022-10-28T13:17:16.303Z,95863.47
2022-10-28T13:20:07.887Z,95865.91
2022-10-28T13:23:00.125Z,95863.25
2022-10-28T13:25:52.703Z,95862.41
2022-10-28T13:28:21.913Z,95858.69
2022-10-28T13:31:02.674Z,95860.31
2022-10-28T13:33:31.808Z,95865.66
2022-10-28T13:36:16.821Z,95861.66
2022-10-28T13:38:50.959Z,95860.88
2022-10-28T13:41:36.541Z,95867.59
2022-10-28T13:44:09.745Z,95861.19
2022-10-28T13:47:16.591Z,95865.97
2022-10-28T13:50:08.450Z,95868.66
2022-10-28T13:52:50.086Z,95865.72
2022-10-28T14:03:00.553Z,95846.56
2022-10-28T14:05:36.679Z,95853.28
2022-10-28T14:08:08.758Z,95840.59
2022-10-28T14:10:40.487Z,95848.56
2022-10-28T14:13:20.038Z,95855.47
2022-10-28T20:46:39.998Z,95867.53
2022-10-28T20:49:11.574Z,95863.69
2022-10-28T20:51:42.658Z,95860.19
2022-10-28T20:54:12.509Z,95858.63
2022-10-28T21:01:38.710Z,95857.94
2022-10-28T21:04:09.744Z,95852.88
2022-10-28T21:06:38.702Z,95850.34
2022-10-28T21:09:06.444Z,95845.22
2022-10-28T21:11:33.428Z,95844.69
2022-10-28T21:14:02.050Z,95844.84
2022-10-28T21:16:30.437Z,95831.22
2022-10-28T21:18:59.211Z,95835.31
2022-10-28T21:21:27.566Z,95836.19
2022-10-28T21:23:55.111Z,95828.69
2022-10-28T21:26:22.655Z,95821.06
2022-10-28T21:28:53.566Z,95821.09
2022-10-28T21:31:21.506Z,95820.66
2022-10-28T21:36:19.648Z,95818.03
2022-10-28T21:38:47.235Z,95829.41
